createdAt,value
2022-10-12T00:01:05.895Z,1.13
2022-10-12T00:03:34.145Z,1.35
2022-10-12T00:06:06.984Z,1.40
2022-10-12T00:08:35.002Z,1.10
2022-10-12T00:11:02.551Z,1.35
2022-10-12T00:13:29.662Z,2.13
2022-10-12T00:15:56.448Z,1.45
2022-10-12T00:18:23.341Z,1.50
2022-10-12T00:21:00.829Z,1.77
2022-10-12T00:23:27.685Z,1.38
2022-10-12T00:25:54.432Z,1.75
2022-10-12T00:28:40.391Z,1.40
2022-10-12T00:31:13.208Z,1.50
2022-10-12T00:33:40.608Z,1.13
2022-10-12T00:36:13.054Z,1.45
2022-10-12T00:38:39.779Z,1.10
2022-10-12T00:41:06.548Z,0.75
2022-10-12T00:43:41.774Z,1.27
2022-10-12T00:46:20.439Z,1.73
2022-10-12T00:48:52.928Z,1.15
2022-10-12T00:51:21.604Z,0.80
2022-10-12T00:56:42.681Z,1.23
2022-10-12T00:59:32.587Z,0.98
2022-10-12T01:01:59.789Z,1.33
2022-10-12T01:04:27.231Z,0.80
2022-10-12T01:06:54.122Z,1.17
2022-10-12T01:09:21.621Z,1.40
2022-10-12T01:12:26.133Z,1.10
2022-10-12T01:14:53.618Z,1.75
2022-10-12T01:18:03.496Z,0.68
2022-10-12T01:20:30.289Z,0.90
2022-10-12T01:23:18.317Z,1.30
2022-10-12T01:26:06.988Z,1.30
2022-10-12T01:28:47.845Z,1.67
2022-10-12T01:31:32.549Z,1.17
2022-10-12T01:34:12.336Z,1.38
2022-10-12T01:36:47.315Z,1.23
2022-10-12T01:39:23.067Z,1.15
2022-10-12T01:42:00.493Z,1.15
2022-10-12T01:44:27.292Z,0.90
2022-10-12T01:46:56.469Z,1.40
2022-10-12T01:49:27.453Z,1.10
2022-10-12T01:52:07.477Z,1.20
2022-10-12T01:54:38.871Z,1.30
2022-10-12T01:57:21.610Z,0.95
2022-10-12T01:59:59.569Z,0.80
2022-10-12T02:02:44.869Z,1.17
2022-10-12T02:05:22.234Z,0.93
2022-10-12T02:08:11.784Z,0.93
2022-10-12T02:10:50.157Z,1.33
2022-10-12T02:13:20.799Z,1.42
2022-10-12T02:15:48.582Z,1.30
2022-10-12T02:18:35.414Z,1.65
2022-10-12T02:21:04.541Z,0.85
2022-10-12T02:23:31.425Z,1.20
2022-10-12T02:26:01.484Z,1.63
2022-10-12T02:28:48.559Z,1.35
2022-10-12T02:31:18.903Z,1.20
2022-10-12T02:33:56.041Z,1.10
2022-10-12T02:36:33.738Z,1.70
2022-10-12T02:39:13.514Z,1.58
2022-10-12T02:41:47.980Z,1.58
2022-10-12T02:44:20.490Z,1.35
2022-10-12T02:46:49.644Z,1.20
2022-10-12T02:49:18.264Z,0.73
2022-10-12T02:51:46.457Z,1.20
2022-10-12T02:54:13.782Z,1.27
2022-10-12T02:56:45.350Z,1.75
2022-10-12T02:59:16.253Z,1.33
2022-10-12T03:02:01.538Z,1.23
2022-10-12T03:04:28.328Z,1.15
2022-10-12T03:06:55.000Z,1.35
2022-10-12T03:09:21.856Z,0.88
2022-10-12T03:11:48.546Z,0.98
2022-10-12T03:14:16.864Z,1.60
2022-10-12T03:16:46.253Z,1.48
2022-10-12T03:19:13.066Z,1.02
2022-10-12T03:21:39.965Z,1.52
2022-10-12T03:24:07.155Z,2.00
2022-10-12T03:26:34.436Z,1.85
2022-10-12T03:29:01.219Z,1.45
2022-10-12T03:31:27.979Z,1.77
2022-10-12T03:33:54.700Z,1.88
2022-10-12T03:36:21.552Z,2.00
2022-10-12T03:38:48.347Z,1.80
2022-10-12T03:41:15.404Z,1.90
2022-10-12T03:43:42.383Z,1.63
2022-10-12T03:46:09.120Z,2.00
2022-10-12T03:48:35.895Z,2.40
2022-10-12T03:51:02.634Z,2.08
2022-10-12T03:53:29.491Z,2.00
2022-10-12T03:55:56.263Z,1.67
2022-10-12T03:58:23.026Z,1.80
2022-10-12T04:03:40.201Z,2.45
2022-10-12T04:06:07.082Z,2.47
2022-10-12T04:08:34.070Z,3.03
2022-10-12T04:11:00.814Z,1.90
2022-10-12T04:13:46.362Z,3.03
2022-10-12T04:16:13.083Z,2.28
2022-10-12T04:18:39.805Z,2.83
2022-10-12T04:21:13.719Z,2.38
2022-10-12T04:23:41.476Z,2.65
2022-10-12T04:26:08.573Z,2.63
2022-10-12T04:28:35.578Z,3.10
2022-10-12T04:31:02.392Z,3.25
2022-10-12T04:33:29.097Z,3.60
2022-10-12T04:35:55.842Z,2.00
2022-10-12T04:38:22.597Z,3.20
2022-10-12T04:40:49.579Z,3.63
2022-10-12T04:43:17.609Z,2.30
2022-10-12T04:45:44.524Z,3.10
2022-10-12T04:48:11.249Z,3.10
2022-10-12T04:50:37.974Z,2.50
2022-10-12T04:53:04.829Z,2.90
2022-10-12T04:55:31.629Z,2.85
2022-10-12T04:57:58.436Z,2.67
2022-10-12T05:00:25.139Z,2.78
2022-10-12T05:02:51.957Z,3.35
2022-10-12T05:05:18.726Z,3.25
2022-10-12T05:07:45.520Z,3.38
2022-10-12T05:10:12.453Z,3.38
2022-10-12T05:12:39.643Z,3.42
2022-10-12T05:15:07.126Z,3.42
2022-10-12T05:17:33.872Z,3.67
2022-10-12T05:20:38.275Z,3.63
2022-10-12T05:23:05.057Z,3.55
2022-10-12T05:25:32.454Z,2.42
2022-10-12T05:27:59.481Z,2.70
2022-10-12T05:30:26.233Z,3.35
2022-10-12T05:32:53.185Z,3.50
2022-10-12T05:35:20.142Z,2.97
2022-10-12T05:37:46.983Z,3.63
2022-10-12T05:40:13.951Z,2.97
2022-10-12T05:42:41.185Z,2.97
2022-10-12T05:45:11.377Z,3.10
2022-10-12T05:47:38.982Z,2.90
2022-10-12T05:50:06.489Z,2.63
2022-10-12T05:52:33.276Z,2.90
2022-10-12T05:55:00.117Z,3.85
2022-10-12T05:57:26.903Z,2.67
2022-10-12T05:59:53.732Z,3.30
2022-10-12T06:02:20.552Z,4.10
2022-10-12T06:04:47.259Z,2.55
2022-10-12T06:07:13.962Z,2.95
2022-10-12T06:09:40.788Z,4.15
2022-10-12T06:12:07.730Z,3.25
2022-10-12T06:14:34.654Z,2.92
2022-10-12T06:17:01.592Z,2.97
2022-10-12T06:19:28.301Z,2.90
2022-10-12T06:21:54.974Z,3.78
2022-10-12T06:24:21.729Z,2.17
2022-10-12T06:26:48.449Z,3.38
2022-10-12T06:29:15.266Z,2.50
2022-10-12T06:31:41.948Z,3.13
2022-10-12T06:34:27.428Z,3.17
2022-10-12T06:36:57.122Z,3.58
2022-10-12T06:39:27.633Z,3.60
2022-10-12T06:41:54.637Z,3.42
2022-10-12T06:44:22.597Z,3.00
2022-10-12T06:46:50.481Z,3.28
2022-10-12T06:49:18.366Z,2.80
2022-10-12T06:51:45.270Z,3.28
2022-10-12T06:54:12.042Z,4.35
2022-10-12T06:56:39.706Z,2.75
2022-10-12T06:59:06.789Z,4.35
2022-10-12T07:01:33.638Z,4.50
2022-10-12T07:04:01.070Z,4.07
2022-10-12T07:06:46.389Z,2.83
2022-10-12T07:09:13.143Z,3.42
2022-10-12T07:11:39.862Z,3.38
2022-10-12T07:14:06.612Z,3.40
2022-10-12T07:16:33.605Z,3.17
2022-10-12T07:19:00.511Z,4.30
2022-10-12T07:21:27.168Z,2.97
2022-10-12T07:24:12.965Z,2.67
2022-10-12T07:26:39.813Z,3.42
2022-10-12T07:29:06.642Z,3.35
2022-10-12T07:34:17.642Z,3.50
2022-10-12T07:36:58.656Z,3.55
2022-10-12T07:39:26.633Z,2.63
2022-10-12T07:41:53.705Z,2.88
2022-10-12T07:44:21.155Z,2.63
2022-10-12T07:46:48.334Z,3.95
2022-10-12T07:49:15.931Z,2.88
2022-10-12T07:51:42.996Z,4.18
2022-10-12T07:54:47.623Z,2.80
2022-10-12T07:57:14.498Z,3.05
2022-10-12T07:59:41.218Z,2.63
2022-10-12T08:02:26.308Z,2.80
2022-10-12T08:04:53.142Z,2.78
2022-10-12T08:07:19.812Z,2.42
2022-10-12T08:12:32.814Z,2.45
2022-10-12T08:14:59.909Z,3.05
2022-10-12T08:17:26.675Z,2.85
2022-10-12T08:19:53.380Z,2.55
2022-10-12T08:22:20.290Z,3.00
2022-10-12T08:24:47.024Z,2.90
2022-10-12T08:27:51.529Z,3.70
2022-10-12T08:30:18.774Z,2.50
2022-10-12T08:32:45.635Z,2.65
2022-10-12T08:35:12.392Z,2.60
2022-10-12T08:37:39.381Z,2.53
2022-10-12T08:40:07.314Z,2.42
2022-10-12T08:43:23.378Z,2.08
2022-10-12T08:45:57.076Z,2.38
2022-10-12T08:48:57.219Z,2.10
2022-10-12T08:51:27.531Z,2.75
2022-10-12T08:54:03.598Z,1.98
2022-10-12T08:56:30.446Z,1.90
2022-10-12T08:58:57.394Z,1.90
2022-10-12T09:01:37.540Z,1.90
2022-10-12T09:04:17.117Z,1.75
2022-10-12T09:06:49.726Z,2.00
2022-10-12T09:09:44.192Z,1.60
2022-10-12T09:12:20.689Z,1.98
2022-10-12T09:14:47.964Z,1.45
2022-10-12T09:17:29.482Z,1.90
2022-10-12T09:20:05.267Z,1.30
2022-10-12T09:22:54.841Z,2.22
2022-10-12T09:25:26.955Z,1.67
2022-10-12T09:27:57.118Z,1.20
2022-10-12T09:30:45.118Z,1.30
2022-10-12T09:33:28.620Z,1.33
2022-10-12T09:35:56.224Z,1.05
2022-10-12T09:38:42.337Z,0.77
2022-10-12T09:41:36.686Z,1.30
2022-10-12T09:44:06.222Z,0.82
2022-10-12T09:46:55.396Z,0.95
2022-10-12T09:49:22.256Z,0.90
2022-10-12T09:51:59.898Z,0.68
2022-10-12T09:54:28.126Z,0.80
2022-10-12T09:57:33.761Z,0.47
2022-10-12T10:00:06.627Z,0.60
2022-10-12T10:02:49.493Z,1.00
2022-10-12T10:05:29.764Z,0.80
2022-10-12T10:08:23.328Z,0.60
2022-10-12T10:11:16.065Z,1.17
2022-10-12T10:13:52.298Z,0.90
2022-10-12T10:16:22.247Z,0.60
2022-10-12T10:18:54.713Z,0.40
2022-10-12T10:21:25.829Z,0.68
2022-10-12T10:24:07.270Z,0.68
2022-10-12T10:26:57.932Z,0.32
2022-10-12T10:29:36.857Z,0.40
2022-10-12T10:32:24.019Z,0.30
2022-10-12T10:35:12.885Z,0.38
2022-10-12T10:37:45.424Z,0.10
2022-10-12T10:40:33.191Z,0.65
2022-10-12T10:43:37.629Z,0.47
2022-10-12T10:46:04.857Z,0.50
2022-10-12T10:48:56.266Z,0.40
2022-10-12T10:51:23.237Z,0.45
2022-10-12T10:53:50.909Z,0.38
2022-10-12T10:56:23.275Z,0.20
2022-10-12T10:58:58.032Z,0.40
2022-10-12T11:01:44.022Z,0.30
2022-10-12T11:04:20.976Z,0.43
2022-10-12T11:06:53.272Z,0.38
2022-10-12T11:09:30.103Z,0.40
2022-10-12T11:12:03.281Z,0.22
2022-10-12T11:14:59.360Z,0.30
2022-10-12T11:17:29.220Z,0.30
2022-10-12T11:20:20.039Z,0.28
2022-10-12T11:23:05.067Z,0.30
2022-10-12T11:25:44.432Z,0.35
2022-10-12T11:28:16.136Z,0.28
2022-10-12T11:30:50.527Z,0.45
2022-10-12T11:33:38.513Z,0.30
2022-10-12T11:36:13.508Z,0.40
2022-10-12T11:38:50.023Z,0.20
2022-10-12T11:41:34.801Z,0.30
2022-10-12T11:44:12.151Z,0.30
2022-10-12T11:46:46.870Z,0.30
2022-10-12T11:49:45.847Z,0.20
2022-10-12T11:52:12.743Z,0.20
2022-10-12T11:54:47.579Z,0.73
2022-10-12T11:57:19.910Z,0.32
2022-10-12T11:59:49.749Z,0.40
2022-10-12T12:02:38.032Z,0.40
2022-10-12T12:05:06.879Z,0.20
2022-10-12T12:07:45.449Z,0.20
2022-10-12T12:10:35.212Z,0.30
2022-10-12T12:13:14.805Z,0.20
2022-10-12T12:15:47.498Z,0.20
2022-10-12T12:18:17.429Z,0.30
2022-10-12T12:20:44.175Z,0.10
2022-10-12T12:23:48.760Z,0.10
2022-10-12T12:26:18.185Z,0.10
2022-10-12T12:28:48.680Z,0.10
2022-10-12T12:31:24.771Z,0.00
2022-10-12T12:34:04.093Z,0.10
2022-10-12T12:36:38.168Z,0.00
2022-10-12T12:39:08.618Z,0.22
2022-10-12T12:42:01.417Z,0.10
2022-10-12T12:44:36.132Z,0.10
2022-10-12T12:47:05.985Z,0.10
2022-10-12T12:50:23.698Z,0.10
2022-10-12T12:52:51.106Z,0.10
2022-10-12T12:55:35.571Z,0.10
2022-10-12T12:58:05.119Z,0.20
2022-10-12T13:00:39.188Z,0.10
2022-10-12T13:03:36.935Z,0.17
2022-10-12T13:06:09.500Z,0.30
2022-10-12T13:08:36.165Z,0.20
2022-10-12T13:11:30.595Z,0.17
2022-10-12T13:14:09.135Z,0.20
2022-10-12T13:19:46.535Z,0.20
2022-10-12T13:22:19.021Z,0.20
2022-10-12T13:24:50.658Z,0.10
2022-10-12T13:27:34.201Z,0.30
2022-10-12T13:30:23.584Z,0.20
2022-10-12T13:32:58.789Z,0.20
2022-10-12T13:35:34.557Z,0.20
2022-10-12T13:38:26.089Z,0.10
2022-10-12T13:40:55.464Z,0.40
2022-10-12T13:43:36.821Z,0.20
2022-10-12T13:46:04.347Z,0.30
2022-10-12T13:48:57.682Z,0.10
2022-10-12T13:51:26.980Z,0.10
2022-10-12T13:53:54.025Z,0.10
2022-10-12T13:56:26.627Z,0.20
2022-10-12T13:58:59.184Z,0.20
2022-10-12T14:01:52.714Z,0.13
2022-10-12T14:04:20.212Z,0.10
2022-10-12T14:07:07.666Z,0.22
2022-10-12T14:09:46.585Z,0.60
2022-10-12T14:12:32.895Z,0.25
2022-10-12T14:15:00.616Z,0.10
2022-10-12T14:17:27.375Z,0.20
2022-10-12T14:19:56.314Z,0.20
2022-10-12T14:22:32.688Z,0.17
2022-10-12T14:25:08.617Z,0.20
2022-10-12T14:28:06.725Z,0.57
2022-10-12T14:30:49.378Z,0.60
2022-10-12T14:33:16.117Z,0.35
2022-10-12T14:35:48.018Z,0.88
2022-10-12T14:38:39.777Z,0.32
2022-10-12T14:41:28.429Z,0.10
2022-10-12T14:44:11.325Z,0.10
2022-10-12T14:46:40.647Z,0.10
2022-10-12T14:49:17.938Z,0.10
2022-10-12T14:51:45.369Z,0.10
2022-10-12T14:54:12.441Z,0.00
2022-10-12T14:56:39.912Z,0.10
2022-10-12T14:59:06.790Z,0.05
2022-10-12T15:04:18.389Z,0.20
2022-10-12T15:06:50.573Z,0.00
2022-10-12T15:09:18.003Z,0.10
2022-10-12T15:11:44.709Z,0.20
2022-10-12T15:14:11.944Z,0.38
2022-10-12T15:16:39.074Z,0.20
2022-10-12T15:19:05.835Z,0.10
2022-10-12T15:21:32.576Z,0.13
2022-10-12T15:23:59.458Z,0.22
2022-10-12T15:26:26.738Z,0.20
2022-10-12T15:28:53.667Z,0.10
2022-10-12T15:31:20.572Z,0.20
2022-10-12T15:33:47.476Z,0.20
2022-10-12T15:36:14.225Z,0.20
2022-10-12T15:38:41.001Z,0.10
2022-10-12T15:41:16.527Z,0.10
2022-10-12T15:43:43.343Z,3.40
2022-10-12T15:46:11.780Z,2.13
2022-10-12T15:48:40.241Z,0.70
2022-10-12T15:51:27.753Z,0.60
2022-10-12T15:53:54.986Z,0.32
2022-10-12T15:56:22.452Z,0.30
2022-10-12T15:58:49.311Z,0.63
2022-10-12T16:01:37.526Z,0.30
2022-10-12T16:04:05.909Z,0.50
2022-10-12T16:06:32.761Z,0.30
2022-10-12T16:11:44.275Z,0.50
2022-10-12T16:14:14.403Z,0.90
2022-10-12T16:16:41.221Z,0.40
2022-10-12T16:19:08.324Z,0.17
2022-10-12T16:21:35.065Z,0.30
2022-10-12T16:24:01.835Z,0.30
2022-10-12T16:26:28.677Z,0.40
2022-10-12T16:28:55.402Z,0.80
2022-10-12T16:31:22.198Z,2.88
2022-10-12T16:33:48.900Z,1.88
2022-10-12T16:36:16.852Z,0.80
2022-10-12T16:38:44.134Z,0.63
2022-10-12T16:41:14.246Z,0.30
2022-10-12T16:43:41.318Z,0.63
2022-10-12T16:46:08.340Z,0.60
2022-10-12T16:48:35.757Z,0.93
2022-10-12T16:51:11.532Z,0.70
2022-10-12T16:56:23.355Z,1.75
2022-10-12T16:58:50.474Z,2.42
2022-10-12T17:01:17.339Z,1.02
2022-10-12T17:03:44.038Z,0.85
2022-10-12T17:06:11.098Z,1.45
2022-10-12T17:08:39.488Z,1.05
2022-10-12T17:11:13.333Z,0.77
2022-10-12T17:13:44.159Z,2.13
2022-10-12T17:16:32.221Z,1.38
2022-10-12T17:19:26.067Z,1.10
2022-10-12T17:21:53.911Z,0.80
2022-10-12T17:24:21.913Z,0.98
2022-10-12T17:26:48.639Z,1.00
2022-10-12T17:29:18.300Z,1.05
2022-10-12T17:31:46.895Z,1.08
2022-10-12T17:34:28.198Z,0.77
2022-10-12T17:36:56.905Z,1.85
2022-10-12T17:39:25.098Z,1.00
2022-10-12T17:42:11.669Z,1.10
2022-10-12T17:44:38.520Z,1.02
2022-10-12T17:47:05.252Z,1.45
2022-10-12T17:49:32.361Z,1.00
2022-10-12T17:51:59.123Z,0.70
2022-10-12T17:54:26.799Z,0.65
2022-10-12T17:56:56.771Z,1.30
2022-10-12T17:59:24.423Z,0.80
2022-10-12T18:01:52.024Z,1.30
2022-10-12T18:04:19.612Z,1.33
2022-10-12T18:06:46.314Z,1.98
2022-10-12T18:09:13.653Z,1.38
2022-10-12T18:11:41.253Z,1.88
2022-10-12T18:14:09.741Z,2.20
2022-10-12T18:16:55.717Z,1.88
2022-10-12T18:19:22.522Z,2.17
2022-10-12T18:22:08.284Z,1.92
2022-10-12T18:24:35.058Z,1.90
2022-10-12T18:27:01.757Z,3.15
2022-10-12T18:29:29.046Z,1.92
2022-10-12T18:31:55.810Z,2.58
2022-10-12T18:34:22.621Z,2.10
2022-10-12T18:36:49.535Z,2.72
2022-10-12T18:39:17.002Z,1.50
2022-10-12T18:41:43.805Z,2.05
2022-10-12T18:46:55.673Z,1.60
2022-10-12T18:49:23.489Z,2.40
2022-10-12T18:51:51.990Z,1.85
2022-10-12T18:54:19.050Z,2.35
2022-10-12T18:56:45.993Z,2.65
2022-10-12T18:59:12.859Z,1.90
2022-10-12T19:01:39.866Z,2.00
2022-10-12T19:04:06.846Z,1.70
2022-10-12T19:06:36.910Z,2.10
2022-10-12T19:09:22.036Z,1.27
2022-10-12T19:11:48.850Z,1.40
2022-10-12T19:14:34.891Z,2.10
2022-10-12T19:17:01.746Z,2.17
2022-10-12T19:19:28.433Z,2.25
2022-10-12T19:21:55.281Z,1.88
2022-10-12T19:24:22.310Z,1.70
2022-10-12T19:26:49.272Z,2.28
2022-10-12T19:29:16.170Z,1.88
2022-10-12T19:31:46.505Z,1.73
2022-10-12T19:34:52.013Z,1.45
2022-10-12T19:37:18.925Z,7.15
2022-10-12T19:39:47.126Z,4.65
2022-10-12T19:42:13.936Z,2.80
2022-10-12T19:45:02.827Z,1.98
2022-10-12T19:47:29.731Z,1.58
2022-10-12T19:50:15.009Z,1.67
2022-10-12T19:52:41.733Z,2.08
2022-10-12T19:55:08.997Z,1.58
2022-10-12T19:57:38.771Z,1.92
2022-10-12T20:00:06.307Z,1.42
2022-10-12T20:02:38.733Z,1.77
2022-10-12T20:05:05.671Z,1.30
2022-10-12T20:07:32.718Z,1.60
2022-10-12T20:10:18.444Z,1.70
2022-10-12T20:13:04.762Z,1.70
2022-10-12T20:15:31.755Z,1.70
2022-10-12T20:17:58.575Z,2.03
2022-10-12T20:20:44.332Z,2.10
2022-10-12T20:23:11.084Z,2.40
2022-10-12T20:25:47.376Z,1.98
2022-10-12T20:28:15.008Z,2.47
2022-10-12T20:30:42.004Z,1.48
2022-10-12T20:33:27.409Z,2.10
2022-10-12T20:35:54.881Z,1.67
2022-10-12T20:38:21.590Z,1.90
2022-10-12T20:40:48.421Z,1.63
2022-10-12T20:43:35.408Z,1.42
2022-10-12T20:49:07.602Z,1.77
2022-10-12T20:51:36.945Z,1.75
2022-10-12T20:54:05.686Z,2.03
2022-10-12T20:56:33.502Z,1.60
2022-10-12T20:59:00.301Z,1.90
2022-10-12T21:01:46.126Z,1.85
2022-10-12T21:04:13.016Z,1.63
2022-10-12T21:06:58.309Z,1.45
2022-10-12T21:09:25.168Z,2.17
2022-10-12T21:11:51.908Z,1.00
2022-10-12T21:14:18.723Z,1.48
2022-10-12T21:16:45.658Z,1.17
2022-10-12T21:19:15.244Z,1.70
2022-10-12T21:21:42.095Z,1.35
2022-10-12T21:24:09.944Z,1.60
2022-10-12T21:26:36.700Z,1.55
2022-10-12T21:29:03.476Z,1.20
2022-10-12T21:31:32.793Z,2.15
2022-10-12T21:34:04.909Z,1.67
2022-10-12T21:36:35.410Z,1.48
2022-10-12T21:39:21.430Z,1.58
2022-10-12T21:41:48.472Z,2.83
2022-10-12T21:44:15.226Z,1.88
2022-10-12T21:46:42.332Z,1.30
2022-10-12T21:49:10.984Z,1.90
2022-10-12T21:51:37.953Z,1.38
2022-10-12T21:54:23.305Z,1.52
2022-10-12T21:56:50.193Z,1.23
2022-10-12T21:59:16.997Z,1.63
2022-10-12T22:01:43.818Z,1.60
2022-10-12T22:04:14.445Z,2.25
2022-10-12T22:06:43.220Z,1.85
2022-10-12T22:09:16.856Z,2.77
2022-10-12T22:11:44.000Z,0.88
2022-10-12T22:14:15.084Z,1.37
2022-10-12T22:19:27.949Z,1.57
2022-10-12T22:22:13.469Z,1.67
2022-10-12T22:24:40.213Z,1.07
2022-10-12T22:27:06.974Z,1.57
2022-10-12T22:29:33.887Z,1.20
2022-10-12T22:32:21.539Z,1.10
2022-10-12T22:35:07.265Z,1.57
2022-10-12T22:37:34.065Z,1.43
2022-10-12T22:40:00.733Z,1.27
2022-10-12T22:42:27.517Z,1.08
2022-10-12T22:44:54.265Z,1.10
2022-10-12T22:47:21.045Z,1.02
2022-10-12T22:49:47.991Z,1.25
2022-10-12T22:52:14.738Z,1.27
2022-10-12T22:54:42.862Z,1.30
2022-10-12T22:57:09.665Z,1.73
2022-10-12T22:59:36.478Z,1.27
2022-10-12T23:02:03.220Z,1.63
2022-10-12T23:04:30.008Z,1.60
2022-10-12T23:06:56.713Z,2.00
2022-10-12T23:09:26.649Z,1.10
2022-10-12T23:11:54.133Z,1.00
2022-10-12T23:14:20.812Z,1.30
2022-10-12T23:17:06.455Z,1.43
2022-10-12T23:19:33.177Z,1.10
2022-10-12T23:22:01.201Z,1.30
2022-10-12T23:24:47.100Z,1.30
2022-10-12T23:27:13.935Z,1.60
2022-10-12T23:29:44.332Z,0.90
2022-10-12T23:32:11.137Z,2.60
2022-10-12T23:34:37.824Z,1.63
2022-10-12T23:37:05.073Z,2.10
2022-10-12T23:39:31.830Z,1.80
2022-10-12T23:41:58.758Z,1.97
2022-10-12T23:44:25.436Z,1.77
2022-10-12T23:46:52.285Z,1.03
2022-10-12T23:49:18.988Z,1.53
2022-10-12T23:51:50.901Z,1.67
2022-10-12T23:54:17.624Z,1.27
2022-10-12T23:56:45.109Z,1.33
2022-10-12T23:59:12.093Z,1.20
